Time;durP1;ratioP1;P1;durP2;ratioP2;P2;SDS_P1;SDS_P2;PMS_P1;PMS_P2;Temp;Humidity;BMP_temperature;BMP_pressure;BME280_temperature;BME280_humidity;BME280_pressure;Samples;Min_cycle;Max_cycle;Signal;HPM_P1;HPM_P2
2023/07/29 00:01:00;;;;;;;5.77;4.20;;;18.00;99.90;;;;;;2612780;54;20134;-71
2023/07/29 00:06:47;;;;;;;5.23;3.60;;;18.00;99.90;;;;;;2611585;54;20432;-74
2023/07/29 00:12:35;;;;;;;10.93;3.70;;;18.20;99.90;;;;;;2613176;54;20135;-73
2023/07/29 00:18:23;;;;;;;5.83;4.23;;;18.10;99.90;;;;;;2612473;54;20150;-73
2023/07/29 00:27:33;;;;;;;7.33;5.33;;;18.00;99.90;;;;;;2613066;54;20378;-73
2023/07/29 00:33:20;;;;;;;7.83;5.57;;;18.00;99.90;;;;;;2612691;54;20267;-74
2023/07/29 00:39:08;;;;;;;6.30;5.33;;;17.80;99.90;;;;;;2615128;54;20145;-73
2023/07/29 00:44:56;;;;;;;9.60;7.27;;;17.90;99.90;;;;;;2611566;54;20150;-76
2023/07/29 00:50:44;;;;;;;6.50;5.90;;;17.90;99.90;;;;;;2611080;54;20118;-75
2023/07/29 00:56:32;;;;;;;6.43;4.70;;;17.90;99.90;;;;;;2612652;54;22375;-75
2023/07/29 01:02:20;;;;;;;10.23;6.13;;;17.90;99.90;;;;;;2609961;54;20146;-75
2023/07/29 01:21:17;;;;;;;5.73;5.10;;;17.70;99.90;;;;;;2615611;39;20879;-80
2023/07/29 01:30:33;;;;;;;8.57;5.57;;;17.60;99.90;;;;;;2612409;54;20427;-80
2023/07/29 01:36:23;;;;;;;6.60;5.70;;;17.40;99.90;;;;;;2615532;39;20806;-79
2023/07/29 01:42:11;;;;;;;4.90;4.50;;;17.50;99.90;;;;;;2611898;54;20366;-78
2023/07/29 01:47:58;;;;;;;6.37;5.07;;;17.50;99.90;;;;;;2610884;54;21611;-80
2023/07/29 01:53:46;;;;;;;7.53;5.50;;;17.50;99.90;;;;;;2611485;54;20122;-77
2023/07/29 01:59:34;;;;;;;8.50;6.10;;;17.80;99.90;;;;;;2611327;54;20404;-79
2023/07/29 02:05:22;;;;;;;7.87;4.70;;;17.90;99.90;;;;;;2611091;54;20130;-80
2023/07/29 02:11:10;;;;;;;10.20;5.30;;;18.00;99.90;;;;;;2612224;54;20151;-77
2023/07/29 02:16:58;;;;;;;7.30;4.70;;;18.10;99.90;;;;;;2610999;54;20134;-79
2023/07/29 02:22:46;;;;;;;4.87;4.27;;;18.10;99.90;;;;;;2611817;54;20130;-79
2023/07/29 02:25:50;;;;;;;4.93;4.10;;;18.10;99.90;;;;;;2611407;54;20403;-77
2023/07/29 02:28:15;;;;;;;5.67;4.90;;;18.10;99.90;;;;;;2610751;47;20213;-80
2023/07/29 02:34:04;;;;;;;8.60;5.33;;;18.10;99.90;;;;;;2612575;54;20155;-74
2023/07/29 02:39:51;;;;;;;5.63;4.20;;;18.10;99.90;;;;;;2611182;54;20925;-79
2023/07/29 02:45:39;;;;;;;5.10;4.13;;;18.10;99.90;;;;;;2611854;54;20127;-80
2023/07/29 02:51:27;;;;;;;5.53;4.50;;;18.10;99.90;;;;;;2610730;54;20732;-75
2023/07/29 02:57:17;;;;;;;10.80;4.20;;;18.00;99.90;;;;;;2611192;54;20159;-77
2023/07/29 03:03:04;;;;;;;6.77;4.30;;;18.00;99.90;;;;;;2612037;54;20404;-78
2023/07/29 03:08:52;;;;;;;7.30;4.10;;;18.10;99.90;;;;;;2613377;54;20134;-80
2023/07/29 03:14:41;;;;;;;8.17;4.77;;;18.10;99.90;;;;;;2612929;54;20197;-80
2023/07/29 03:20:28;;;;;;;7.27;4.30;;;18.10;99.90;;;;;;2612131;54;20387;-79
2023/07/29 03:30:19;;;;;;;4.00;3.60;;;18.20;99.90;;;;;;2611399;54;20412;-74
2023/07/29 03:36:06;;;;;;;6.57;3.83;;;18.30;99.90;;;;;;2612615;54;20359;-74
2023/07/29 03:41:54;;;;;;;15.67;5.07;;;18.30;99.90;;;;;;2612830;54;20123;-73
2023/07/29 03:47:42;;;;;;;6.77;4.43;;;18.40;99.90;;;;;;2612458;54;20130;-73
2023/07/29 03:50:45;;;;;;;8.67;4.70;;;18.30;99.90;;;;;;2612616;54;20420;-72
2023/07/29 03:53:11;;;;;;;10.53;5.10;;;18.30;99.90;;;;;;2612204;54;20169;-74
2023/07/29 03:59:03;;;;;;;6.90;4.67;;;18.30;99.90;;;;;;2611649;54;20158;-70
2023/07/29 04:04:51;;;;;;;4.77;3.93;;;18.30;99.90;;;;;;2615561;54;20391;-71
2023/07/29 04:10:39;;;;;;;9.37;4.80;;;18.30;99.90;;;;;;2616059;54;20122;-72
2023/07/29 04:16:28;;;;;;;5.97;5.40;;;18.30;99.90;;;;;;2615771;54;20159;-71
2023/07/29 04:22:16;;;;;;;6.07;5.40;;;18.30;99.90;;;;;;2616716;39;20751;-71
2023/07/29 04:28:05;;;;;;;7.93;7.13;;;18.30;99.90;;;;;;2616097;46;20462;-71
2023/07/29 04:33:52;;;;;;;9.47;5.67;;;18.30;99.90;;;;;;2617527;39;20756;-71
2023/07/29 04:39:40;;;;;;;10.60;6.13;;;18.40;99.90;;;;;;2617929;39;20540;-70
2023/07/29 04:45:30;;;;;;;7.20;5.53;;;18.60;99.90;;;;;;2617530;54;20648;-70
2023/07/29 04:51:18;;;;;;;6.27;5.73;;;18.60;99.90;;;;;;2617382;54;20418;-71
2023/07/29 04:57:06;;;;;;;8.43;5.90;;;18.60;99.90;;;;;;2617089;54;20391;-72
2023/07/29 05:02:54;;;;;;;9.00;5.60;;;18.60;99.90;;;;;;2613719;54;20143;-78
2023/07/29 05:08:42;;;;;;;7.37;5.83;;;18.60;99.90;;;;;;2612844;39;20526;-80
2023/07/29 05:14:30;;;;;;;7.50;6.67;;;18.60;99.90;;;;;;2612324;54;20174;-79
2023/07/29 05:20:18;;;;;;;11.00;8.63;;;18.70;99.90;;;;;;2612438;54;20383;-79
2023/07/29 05:30:21;;;;;;;10.20;9.20;;;18.80;94.20;;;;;;2611508;54;20499;-79
2023/07/29 05:36:08;;;;;;;11.63;10.43;;;19.00;59.00;;;;;;2611404;54;20375;-77
2023/07/29 05:41:56;;;;;;;11.57;10.47;;;19.10;23.40;;;;;;2612141;54;20965;-79
2023/07/29 05:47:44;;;;;;;12.20;10.97;;;19.10;14.70;;;;;;2612308;54;20236;-74
2023/07/29 05:53:32;;;;;;;12.00;10.90;;;19.00;17.70;;;;;;2612462;54;20167;-73
2023/07/29 05:59:20;;;;;;;12.37;11.17;;;18.80;54.10;;;;;;2609966;54;20159;-73
2023/07/29 06:05:07;;;;;;;9.00;8.10;;;18.70;49.70;;;;;;2609898;39;20646;-74
2023/07/29 06:10:55;;;;;;;9.90;7.63;;;18.60;1.00;;;;;;2608550;54;20228;-73
2023/07/29 06:16:44;;;;;;;5.40;4.90;;;18.60;1.00;;;;;;2614381;54;20243;-70
2023/07/29 06:22:32;;;;;;;3.73;3.20;;;18.60;1.00;;;;;;2616682;54;20383;-71
2023/07/29 06:25:51;;;;;;;5.77;3.57;;;18.70;1.00;;;;;;2617041;54;20424;-72
2023/07/29 06:28:17;;;;;;;3.97;3.43;;;18.70;1.00;;;;;;2615907;39;20563;-72
2023/07/29 06:34:07;;;;;;;3.73;2.97;;;18.70;1.00;;;;;;2615295;54;20150;-71
2023/07/29 06:40:00;;;;;;;5.00;3.40;;;18.90;1.00;;;;;;2615672;54;20407;-72
2023/07/29 06:45:47;;;;;;;5.13;3.20;;;18.80;1.00;;;;;;2617190;54;20371;-71
2023/07/29 06:51:36;;;;;;;2.77;2.50;;;19.00;1.00;;;;;;2615734;54;20136;-71
2023/07/29 06:57:24;;;;;;;4.77;3.03;;;19.00;1.00;;;;;;2615756;54;20386;-72
2023/07/29 07:03:12;;;;;;;3.00;2.73;;;18.80;1.00;;;;;;2616183;54;20146;-71
2023/07/29 07:08:59;;;;;;;4.83;2.30;;;18.90;1.00;;;;;;2617240;54;20122;-71
2023/07/29 07:14:47;;;;;;;3.33;3.03;;;19.30;1.00;;;;;;2618068;39;20510;-71
2023/07/29 07:20:36;;;;;;;2.70;2.20;;;19.30;1.00;;;;;;2617060;54;20400;-70
2023/07/29 07:30:27;;;;;;;4.43;2.60;;;20.00;1.00;;;;;;2617047;54;20383;-71
2023/07/29 07:36:15;;;;;;;3.13;2.93;;;21.30;1.00;;;;;;2616191;54;20383;-79
2023/07/29 07:42:03;;;;;;;3.90;3.50;;;21.00;1.00;;;;;;2614891;54;20408;-80
2023/07/29 07:47:53;;;;;;;3.40;3.10;;;20.90;1.00;;;;;;2614564;54;20122;-78
2023/07/29 07:53:41;;;;;;;3.93;3.63;;;21.80;1.00;;;;;;2614393;39;20542;-80
2023/07/29 07:59:29;;;;;;;3.50;3.30;;;21.60;1.00;;;;;;2613165;54;20382;-79
2023/07/29 08:05:18;;;;;;;3.50;3.20;;;21.10;1.00;;;;;;2615159;54;20330;-72
2023/07/29 08:11:06;;;;;;;4.93;3.77;;;20.40;1.00;;;;;;2615681;39;20601;-72
2023/07/29 08:16:53;;;;;;;2.83;2.63;;;21.90;1.00;;;;;;2614778;54;20137;-71
2023/07/29 08:22:41;;;;;;;3.30;3.00;;;22.20;1.00;;;;;;2615994;54;20155;-73
2023/07/29 08:26:01;;;;;;;4.10;3.57;;;22.80;1.00;;;;;;2614604;54;20420;-73
2023/07/29 08:28:28;;;;;;;3.83;3.53;;;21.70;1.00;;;;;;2613594;54;20165;-72
2023/07/29 08:34:16;;;;;;;4.13;3.90;;;20.90;1.00;;;;;;2614750;54;20391;-73
2023/07/29 08:40:04;;;;;;;5.20;4.90;;;21.70;1.00;;;;;;2614061;54;20147;-73
2023/07/29 08:45:56;;;;;;;4.70;4.40;;;22.30;1.00;;;;;;2616425;39;20761;-70
2023/07/29 08:51:47;;;;;;;5.43;5.00;;;22.40;1.00;;;;;;2616696;54;20380;-69
2023/07/29 08:57:35;;;;;;;5.50;5.20;;;23.00;1.00;;;;;;2617147;39;20794;-70
2023/07/29 09:03:23;;;;;;;5.37;5.07;;;23.10;1.00;;;;;;2617109;46;20402;-70
2023/07/29 09:09:11;;;;;;;5.90;5.50;;;22.20;1.00;;;;;;2616457;54;20154;-71
2023/07/29 09:14:58;;;;;;;5.13;4.80;;;22.90;1.00;;;;;;2616606;54;20151;-72
2023/07/29 09:20:48;;;;;;;4.90;4.60;;;23.50;1.00;;;;;;2617494;54;20133;-72
2023/07/29 09:30:30;;;;;;;4.73;4.47;;;22.70;1.00;;;;;;2617736;54;20909;-70
2023/07/29 09:36:21;;;;;;;5.10;4.80;;;23.10;1.00;;;;;;2617763;54;20411;-71
2023/07/29 09:45:39;;;;;;;5.57;5.20;;;24.30;1.00;;;;;;2617724;54;20414;-70
2023/07/29 09:48:09;;;;;;;5.00;4.80;;;24.10;1.00;;;;;;2617515;54;20976;-72
2023/07/29 09:53:58;;;;;;;5.43;5.03;;;24.10;1.00;;;;;;2616894;54;20929;-71
2023/07/29 10:06:21;;;;;;;4.87;4.50;;;22.30;1.00;;;;;;2616980;54;20391;-71
2023/07/29 10:12:09;;;;;;;5.20;4.90;;;22.30;1.00;;;;;;2617670;46;20419;-71
2023/07/29 10:17:57;;;;;;;4.50;4.30;;;22.80;1.00;;;;;;2617249;54;20403;-72
2023/07/29 10:23:49;;;;;;;5.10;4.80;;;23.20;1.00;;;;;;2617387;54;20476;-70
2023/07/29 10:33:02;;;;;;;5.00;4.80;;;24.20;1.00;;;;;;2617137;54;20487;-72
2023/07/29 10:38:50;;;;;;;5.33;5.07;;;24.60;1.00;;;;;;2615533;54;20375;-79
2023/07/29 10:44:45;;;;;;;5.50;5.30;;;25.30;1.00;;;;;;2614829;54;20150;-75
2023/07/29 10:50:33;;;;;;;6.10;5.70;;;24.40;1.00;;;;;;2615624;31;20834;-80
2023/07/29 10:56:32;;;;;;;5.40;5.10;;;24.60;1.00;;;;;;2613646;54;20275;-79
2023/07/29 11:02:19;;;;;;;5.63;5.33;;;23.60;1.00;;;;;;2613100;54;20356;-80
2023/07/29 11:14:46;;;;;;;6.20;5.90;;;25.50;1.00;;;;;;2614647;54;20387;-76
2023/07/29 11:20:34;;;;;;;6.10;5.80;;;25.80;1.00;;;;;;2614446;54;20162;-81
2023/07/29 11:26:22;;;;;;;5.90;5.67;;;25.70;1.00;;;;;;2613709;54;20395;-82
2023/07/29 11:32:10;;;;;;;6.57;6.07;;;26.20;1.00;;;;;;2614667;54;20130;-79
2023/07/29 11:37:57;;;;;;;6.10;5.80;;;25.90;1.00;;;;;;2616545;54;20150;-70
2023/07/29 11:43:45;;;;;;;5.70;5.50;;;25.60;1.00;;;;;;2616222;54;20130;-73
2023/07/29 11:49:33;;;;;;;6.23;5.93;;;24.80;1.00;;;;;;2615894;54;20127;-71
2023/07/29 11:55:21;;;;;;;6.00;5.70;;;25.20;1.00;;;;;;2616086;54;20379;-72
2023/07/29 12:01:10;;;;;;;6.37;5.77;;;24.30;1.00;;;;;;2616482;54;20135;-72
2023/07/29 12:06:58;;;;;;;6.47;6.07;;;24.60;1.00;;;;;;2616040;39;20795;-71
2023/07/29 12:12:50;;;;;;;6.20;5.90;;;25.80;1.00;;;;;;2616661;54;20399;-73
2023/07/29 12:18:37;;;;;;;6.40;6.10;;;26.00;1.00;;;;;;2616750;54;20499;-71
2023/07/29 12:24:25;;;;;;;7.07;6.67;;;25.90;1.00;;;;;;2616626;54;20130;-71
2023/07/29 12:33:37;;;;;;;6.90;6.30;;;24.50;1.00;;;;;;2616383;54;20972;-73
2023/07/29 12:39:30;;;;;;;7.00;6.70;;;25.80;1.00;;;;;;2616321;54;20382;-70
2023/07/29 12:45:18;;;;;;;7.20;6.70;;;25.70;1.00;;;;;;2615942;54;20399;-76
2023/07/29 12:51:05;;;;;;;7.43;7.10;;;24.50;1.00;;;;;;2615300;54;20395;-76
2023/07/29 12:56:53;;;;;;;6.90;6.50;;;25.90;1.00;;;;;;2613996;54;20178;-75
2023/07/29 13:02:41;;;;;;;6.90;6.60;;;24.60;1.00;;;;;;2616693;54;20243;-72
2023/07/29 13:08:30;;;;;;;6.93;6.63;;;25.70;1.00;;;;;;2617079;54;20134;-72
2023/07/29 13:14:18;;;;;;;7.53;7.13;;;24.50;1.00;;;;;;2617267;54;20383;-73
2023/07/29 13:20:07;;;;;;;7.53;7.13;;;24.90;1.00;;;;;;2616936;54;20263;-73
2023/07/29 13:25:55;;;;;;;7.77;7.27;;;25.20;1.00;;;;;;2617390;54;20419;-71
2023/07/29 13:29:01;;;;;;;6.50;6.20;;;24.80;1.00;;;;;;2616271;54;20598;-72
2023/07/29 13:31:28;;;;;;;7.33;6.93;;;24.80;1.00;;;;;;2615772;54;20463;-73
2023/07/29 13:37:17;;;;;;;7.00;6.57;;;24.40;1.00;;;;;;2617279;46;20420;-74
2023/07/29 13:43:04;;;;;;;7.33;6.80;;;23.80;1.00;;;;;;2615708;54;20403;-72
2023/07/29 13:48:52;;;;;;;7.10;6.80;;;23.60;1.00;;;;;;2610766;54;20408;-74
2023/07/29 13:54:39;;;;;;;6.63;6.33;;;23.20;1.00;;;;;;2614293;54;20661;-73
2023/07/29 14:00:27;;;;;;;6.77;6.40;;;22.90;1.00;;;;;;2608750;54;20147;-73
2023/07/29 14:06:15;;;;;;;5.70;5.40;;;22.80;1.00;;;;;;2610054;54;20170;-70
2023/07/29 14:12:03;;;;;;;5.00;4.60;;;22.30;1.00;;;;;;2612602;39;20530;-71
2023/07/29 14:17:50;;;;;;;3.97;3.20;;;21.20;1.00;;;;;;2609412;54;20428;-76
2023/07/29 14:23:38;;;;;;;3.40;2.87;;;19.90;1.00;;;;;;2609514;54;20789;-76
2023/07/29 14:33:38;;;;;;;3.10;2.60;;;18.50;17.90;;;;;;2610577;39;22329;-76
2023/07/29 14:39:25;;;;;;;4.47;2.40;;;18.40;1.00;;;;;;2604689;54;20527;-76
2023/07/29 14:45:13;;;;;;;3.40;1.77;;;18.80;1.00;;;;;;2608120;54;20130;-78
2023/07/29 14:51:01;;;;;;;3.40;2.07;;;21.00;1.00;;;;;;2609610;54;20131;-78
2023/07/29 14:56:48;;;;;;;2.30;2.10;;;21.30;1.00;;;;;;2609345;39;20511;-81
2023/07/29 15:02:36;;;;;;;4.33;3.80;;;20.90;1.00;;;;;;2610760;54;20126;-82
2023/07/29 15:08:24;;;;;;;3.80;3.50;;;21.00;1.00;;;;;;2614564;54;20734;-73
2023/07/29 15:14:12;;;;;;;2.93;2.63;;;19.90;1.00;;;;;;2614610;47;20414;-71
2023/07/29 15:20:00;;;;;;;3.10;2.80;;;19.40;1.00;;;;;;2611932;54;20131;-73
2023/07/29 15:25:49;;;;;;;3.40;2.50;;;19.50;1.00;;;;;;2612441;31;20768;-72
2023/07/29 15:29:07;;;;;;;3.90;3.27;;;19.40;1.00;;;;;;2611685;54;21043;-72
2023/07/29 15:31:33;;;;;;;3.33;2.60;;;19.40;1.00;;;;;;2611119;47;20450;-73
2023/07/29 15:37:21;;;;;;;4.47;2.93;;;19.70;1.00;;;;;;2611927;54;20395;-72
2023/07/29 15:43:09;;;;;;;5.00;3.17;;;21.00;1.00;;;;;;2610826;54;20363;-74
2023/07/29 15:46:13;;;;;;;6.47;3.07;;;20.70;1.00;;;;;;2610896;54;20510;-75
2023/07/29 15:48:38;;;;;;;3.93;2.80;;;20.50;1.00;;;;;;2610575;54;20269;-75
2023/07/29 15:54:26;;;;;;;4.00;3.60;;;20.90;1.00;;;;;;2611247;54;20143;-75
2023/07/29 16:00:14;;;;;;;5.30;4.43;;;21.20;1.00;;;;;;2610619;54;20262;-75
2023/07/29 16:06:03;;;;;;;4.87;4.47;;;22.40;1.00;;;;;;2610428;54;20230;-75
2023/07/29 16:11:51;;;;;;;4.60;4.30;;;22.60;1.00;;;;;;2605817;31;21074;-75
2023/07/29 16:17:38;;;;;;;4.40;4.00;;;22.70;1.00;;;;;;2613602;54;20142;-75
2023/07/29 16:23:26;;;;;;;4.43;4.03;;;24.60;1.00;;;;;;2616271;39;20512;-73
2023/07/29 16:35:59;;;;;;;7.30;6.60;;;22.10;1.00;;;;;;2617832;54;20415;-72
2023/07/29 16:41:48;;;;;;;2.60;2.40;;;21.60;1.00;;;;;;2617800;54;20403;-72
2023/07/29 16:47:37;;;;;;;3.30;2.93;;;21.80;1.00;;;;;;2617932;54;20447;-73
2023/07/29 16:53:27;;;;;;;2.83;2.60;;;22.10;1.00;;;;;;2618254;46;20391;-74
2023/07/29 16:59:15;;;;;;;2.63;2.40;;;21.60;1.00;;;;;;2618233;54;20508;-73
2023/07/29 17:05:04;;;;;;;3.07;2.87;;;21.30;1.00;;;;;;2618349;54;20250;-75
2023/07/29 17:10:51;;;;;;;4.27;2.73;;;21.00;1.00;;;;;;2618569;54;20406;-73
2023/07/29 17:16:39;;;;;;;2.73;2.30;;;20.90;1.00;;;;;;2614734;54;20167;-79
2023/07/29 17:22:27;;;;;;;2.60;2.40;;;21.00;1.00;;;;;;2613540;54;20135;-82
2023/07/29 17:28:14;;;;;;;4.00;3.27;;;21.00;1.00;;;;;;2612791;54;20159;-83
2023/07/29 17:34:02;;;;;;;7.33;4.70;;;20.80;1.00;;;;;;2611958;54;20170;-77
2023/07/29 17:37:24;;;;;;;3.97;3.57;;;20.80;1.00;;;;;;2611921;54;20506;-83
2023/07/29 17:43:12;;;;;;;2.93;2.63;;;20.70;1.00;;;;;;2611058;54;20389;-82
2023/07/29 17:48:59;;;;;;;3.37;3.07;;;20.50;1.00;;;;;;2611954;54;20224;-78
2023/07/29 17:54:47;;;;;;;5.20;4.70;;;20.40;1.00;;;;;;2610983;46;20198;-80
2023/07/29 18:00:35;;;;;;;4.30;3.10;;;20.10;1.00;;;;;;2610790;54;20130;-75
2023/07/29 18:06:23;;;;;;;3.53;3.23;;;19.90;1.00;;;;;;2611594;54;20375;-76
2023/07/29 18:12:11;;;;;;;4.53;3.27;;;19.80;1.00;;;;;;2613468;54;20179;-76
2023/07/29 18:18:00;;;;;;;4.10;3.47;;;19.50;45.70;;;;;;2615290;39;20565;-77
2023/07/29 18:23:48;;;;;;;3.90;3.27;;;19.30;31.20;;;;;;2615277;54;20426;-74
2023/07/29 18:29:36;;;;;;;3.63;3.13;;;18.90;99.90;;;;;;2615050;54;20399;-77
2023/07/29 18:32:52;;;;;;;4.23;2.53;;;18.90;99.90;;;;;;2615173;39;20829;-77
2023/07/29 18:35:17;;;;;;;2.80;2.00;;;18.80;99.90;;;;;;2614255;39;20562;-75
2023/07/29 18:41:05;;;;;;;2.90;2.33;;;18.70;99.90;;;;;;2614413;54;20175;-73
2023/07/29 18:46:53;;;;;;;3.03;2.50;;;18.60;34.80;;;;;;2615109;54;20148;-73
2023/07/29 18:52:40;;;;;;;2.80;2.10;;;18.30;72.10;;;;;;2614959;54;20227;-74
2023/07/29 18:58:28;;;;;;;3.10;1.80;;;17.90;99.90;;;;;;2614600;54;20123;-73
2023/07/29 19:04:16;;;;;;;3.73;1.90;;;17.80;89.00;;;;;;2614768;54;20126;-74
2023/07/29 19:10:04;;;;;;;4.30;2.43;;;17.80;99.90;;;;;;2612312;54;20260;-75
2023/07/29 19:15:54;;;;;;;3.13;2.37;;;17.50;99.90;;;;;;2612834;54;20371;-73
2023/07/29 19:21:41;;;;;;;4.47;2.53;;;17.50;99.90;;;;;;2614203;54;20383;-73
2023/07/29 19:27:29;;;;;;;8.53;3.40;;;17.40;99.90;;;;;;2614365;54;20864;-72
2023/07/29 19:37:23;;;;;;;4.13;2.50;;;17.30;99.90;;;;;;2614453;54;20426;-73
2023/07/29 19:43:10;;;;;;;4.77;3.13;;;17.30;99.90;;;;;;2614373;54;20364;-73
2023/07/29 19:48:58;;;;;;;4.77;3.90;;;17.20;99.90;;;;;;2614685;39;20492;-77
2023/07/29 19:54:46;;;;;;;8.97;3.90;;;17.20;99.90;;;;;;2613664;54;20676;-76
2023/07/29 20:00:34;;;;;;;4.63;4.10;;;17.20;99.90;;;;;;2614178;54;20448;-76
2023/07/29 20:06:22;;;;;;;5.00;3.80;;;17.30;99.90;;;;;;2613638;54;20139;-77
2023/07/29 20:12:09;;;;;;;6.27;4.77;;;17.30;99.90;;;;;;2613294;54;20461;-75
2023/07/29 20:17:57;;;;;;;4.30;3.90;;;17.60;99.90;;;;;;2613985;54;20133;-75
2023/07/29 20:23:48;;;;;;;4.83;3.70;;;17.60;99.90;;;;;;2614597;54;20455;-75
2023/07/29 20:29:36;;;;;;;5.60;4.30;;;17.70;99.90;;;;;;2614373;54;20391;-76
2023/07/29 20:32:51;;;;;;;4.63;3.90;;;17.70;99.90;;;;;;2613523;54;20535;-75
2023/07/29 20:35:17;;;;;;;8.47;3.43;;;17.70;99.90;;;;;;2614250;54;20416;-75
2023/07/29 20:41:05;;;;;;;3.60;3.30;;;17.70;99.90;;;;;;2614316;46;20142;-75
2023/07/29 20:46:52;;;;;;;8.07;4.00;;;17.60;99.90;;;;;;2614406;39;20493;-75
2023/07/29 20:52:40;;;;;;;5.80;3.90;;;17.60;99.90;;;;;;2614000;54;20256;-74
2023/07/29 20:58:28;;;;;;;4.13;3.00;;;17.50;99.90;;;;;;2615516;54;20130;-78
2023/07/29 21:04:16;;;;;;;4.67;3.77;;;17.50;99.90;;;;;;2615772;54;20126;-75
2023/07/29 21:10:04;;;;;;;4.77;4.10;;;17.40;99.90;;;;;;2615237;54;20135;-78
2023/07/29 21:15:53;;;;;;;4.60;4.20;;;17.30;99.90;;;;;;2615927;54;20423;-73
2023/07/29 21:21:41;;;;;;;4.30;3.87;;;17.30;99.90;;;;;;2614718;54;20366;-74
2023/07/29 21:27:29;;;;;;;6.30;5.10;;;17.20;99.90;;;;;;2614289;54;20131;-73
2023/07/29 21:37:22;;;;;;;5.13;4.40;;;17.20;99.90;;;;;;2615829;54;20910;-74
2023/07/29 21:43:09;;;;;;;7.63;4.80;;;17.20;99.90;;;;;;2615560;54;20348;-73
2023/07/29 21:48:57;;;;;;;5.40;4.60;;;17.10;99.90;;;;;;2615958;39;20537;-72
2023/07/29 21:52:00;;;;;;;7.70;4.90;;;17.10;99.90;;;;;;2613769;54;20416;-73
2023/07/29 21:54:26;;;;;;;5.60;4.70;;;17.10;99.90;;;;;;2614514;54;20237;-74
2023/07/29 22:00:13;;;;;;;6.03;4.83;;;17.10;99.90;;;;;;2613011;54;20142;-73
2023/07/29 22:06:05;;;;;;;7.87;4.80;;;17.00;99.90;;;;;;2613753;39;20620;-75
2023/07/29 22:11:53;;;;;;;6.27;5.10;;;17.00;99.90;;;;;;2613960;54;20440;-74
2023/07/29 22:17:41;;;;;;;6.10;5.50;;;17.00;99.90;;;;;;2613465;46;20190;-76
2023/07/29 22:23:28;;;;;;;7.50;6.17;;;16.90;99.90;;;;;;2613074;54;20118;-74
2023/07/29 22:29:16;;;;;;;8.53;4.90;;;16.80;99.90;;;;;;2612973;54;20695;-74
2023/07/29 22:35:04;;;;;;;8.87;4.73;;;16.80;99.90;;;;;;2615282;54;20174;-74
2023/07/29 22:40:53;;;;;;;6.00;5.40;;;16.80;99.90;;;;;;2613278;54;20527;-74
2023/07/29 22:46:45;;;;;;;6.00;5.40;;;16.60;99.90;;;;;;2612926;54;20447;-75
2023/07/29 22:52:32;;;;;;;12.07;5.70;;;16.50;99.90;;;;;;2614481;54;20408;-74
2023/07/29 22:58:20;;;;;;;5.70;4.90;;;16.40;99.90;;;;;;2612388;54;20130;-73
2023/07/29 23:04:08;;;;;;;10.33;6.03;;;16.30;99.90;;;;;;2611584;54;20141;-74
2023/07/29 23:09:56;;;;;;;5.93;4.60;;;16.30;99.90;;;;;;2613559;54;20668;-73
2023/07/29 23:15:44;;;;;;;7.90;5.73;;;16.60;99.90;;;;;;2612816;54;20220;-71
2023/07/29 23:21:32;;;;;;;9.17;5.23;;;16.50;99.90;;;;;;2612234;54;20122;-72
2023/07/29 23:27:19;;;;;;;9.40;6.30;;;16.00;99.90;;;;;;2614024;54;20117;-73
2023/07/29 23:43:28;;;;;;;7.57;5.83;;;15.70;99.90;;;;;;2610445;54;20430;-73
2023/07/29 23:49:15;;;;;;;13.57;6.30;;;15.70;99.90;;;;;;2611132;31;20573;-74
2023/07/29 23:55:03;;;;;;;20.20;6.10;;;15.60;99.90;;;;;;2612289;54;20162;-73
